Cartersville, Georgia
Current Conditions -  °F | °C
As of 1:53 AM on Sunday 23 Nov 2014 (Local Time) from KVPC Reporting Station
Overcast Overcast  
Wind Chill: 53°   Ceiling: 2100
Heat Index: 53°   Visibility: 10mi
Dew Point: 34°   Wind: 7mph
Humidity: 48%   Direction: 100°E
Pressure: 30.14"   Gusts: 16mph
Location:  34.17°N, 84.79°W
Report Text: KVPC 230653Z AUTO 10006G14KT 10SM OVC021 12/01 A3014 RMK AO2 SLP199 T01170011
Loading
Personal Weather Stations






























Interactive Weather Map New forecast layout! Learn more

10-Day Weather Forecast

Advertisements
Track Severe Weather on mobile